sensor_id;sensor_type;location;lat;lon;timestamp;P1;durP1;ratioP1;P2;durP2;ratioP2
53409;SDS011;66590;50.734;4.246;2023-07-31T00:00:17;14.43;;;6.22;;
53409;SDS011;66590;50.734;4.246;2023-07-31T00:02:44;20.13;;;7.55;;
53409;SDS011;66590;50.734;4.246;2023-07-31T00:05:12;16.08;;;7.05;;
53409;SDS011;66590;50.734;4.246;2023-07-31T00:07:39;16.35;;;6.60;;
53409;SDS011;66590;50.734;4.246;2023-07-31T00:10:06;13.60;;;6.65;;
53409;SDS011;66590;50.734;4.246;2023-07-31T00:12:34;13.30;;;6.25;;
53409;SDS011;66590;50.734;4.246;2023-07-31T00:15:00;15.48;;;6.97;;
53409;SDS011;66590;50.734;4.246;2023-07-31T00:17:28;15.40;;;6.78;;
53409;SDS011;66590;50.734;4.246;2023-07-31T00:19:55;15.50;;;6.72;;
53409;SDS011;66590;50.734;4.246;2023-07-31T00:22:23;14.40;;;6.53;;
53409;SDS011;66590;50.734;4.246;2023-07-31T00:24:50;15.82;;;7.25;;
53409;SDS011;66590;50.734;4.246;2023-07-31T00:27:17;15.52;;;6.55;;
53409;SDS011;66590;50.734;4.246;2023-07-31T00:29:44;13.02;;;5.65;;
53409;SDS011;66590;50.734;4.246;2023-07-31T00:32:11;14.75;;;7.43;;
53409;SDS011;66590;50.734;4.246;2023-07-31T00:34:38;13.35;;;7.30;;
53409;SDS011;66590;50.734;4.246;2023-07-31T00:37:05;13.80;;;7.13;;
53409;SDS011;66590;50.734;4.246;2023-07-31T00:39:34;17.45;;;6.55;;
53409;SDS011;66590;50.734;4.246;2023-07-31T00:42:01;18.25;;;6.85;;
53409;SDS011;66590;50.734;4.246;2023-07-31T00:44:30;18.15;;;6.22;;
53409;SDS011;66590;50.734;4.246;2023-07-31T00:46:57;13.80;;;5.72;;
53409;SDS011;66590;50.734;4.246;2023-07-31T00:49:24;17.55;;;6.68;;
53409;SDS011;66590;50.734;4.246;2023-07-31T00:51:52;14.95;;;6.22;;
53409;SDS011;66590;50.734;4.246;2023-07-31T00:54:19;15.05;;;6.85;;
53409;SDS011;66590;50.734;4.246;2023-07-31T00:56:48;15.45;;;6.40;;
53409;SDS011;66590;50.734;4.246;2023-07-31T00:59:19;14.52;;;6.20;;
53409;SDS011;66590;50.734;4.246;2023-07-31T01:01:46;12.98;;;6.55;;
53409;SDS011;66590;50.734;4.246;2023-07-31T01:04:13;12.77;;;6.97;;
53409;SDS011;66590;50.734;4.246;2023-07-31T01:06:42;16.10;;;7.55;;
53409;SDS011;66590;50.734;4.246;2023-07-31T01:09:16;15.68;;;7.22;;
53409;SDS011;66590;50.734;4.246;2023-07-31T01:12:01;16.92;;;7.65;;
53409;SDS011;66590;50.734;4.246;2023-07-31T01:14:29;21.02;;;8.68;;
53409;SDS011;66590;50.734;4.246;2023-07-31T01:16:57;18.02;;;7.32;;
53409;SDS011;66590;50.734;4.246;2023-07-31T01:19:24;16.23;;;7.88;;
53409;SDS011;66590;50.734;4.246;2023-07-31T01:24:55;14.90;;;7.95;;
53409;SDS011;66590;50.734;4.246;2023-07-31T01:27:34;14.02;;;6.97;;
53409;SDS011;66590;50.734;4.246;2023-07-31T01:30:05;14.73;;;7.40;;
53409;SDS011;66590;50.734;4.246;2023-07-31T01:32:38;16.73;;;8.02;;
53409;SDS011;66590;50.734;4.246;2023-07-31T01:35:07;16.75;;;7.55;;
53409;SDS011;66590;50.734;4.246;2023-07-31T01:37:34;17.35;;;7.28;;
53409;SDS011;66590;50.734;4.246;2023-07-31T01:40:01;15.55;;;7.72;;
53409;SDS011;66590;50.734;4.246;2023-07-31T01:42:29;15.10;;;7.05;;
53409;SDS011;66590;50.734;4.246;2023-07-31T01:44:57;13.10;;;6.22;;
53409;SDS011;66590;50.734;4.246;2023-07-31T01:47:24;12.93;;;6.55;;
53409;SDS011;66590;50.734;4.246;2023-07-31T01:49:51;12.77;;;6.95;;
53409;SDS011;66590;50.734;4.246;2023-07-31T01:52:18;16.05;;;7.63;;
53409;SDS011;66590;50.734;4.246;2023-07-31T01:54:45;13.55;;;6.65;;
53409;SDS011;66590;50.734;4.246;2023-07-31T01:57:12;13.48;;;7.43;;
53409;SDS011;66590;50.734;4.246;2023-07-31T01:59:39;19.17;;;7.28;;
53409;SDS011;66590;50.734;4.246;2023-07-31T02:02:07;15.18;;;7.38;;
53409;SDS011;66590;50.734;4.246;2023-07-31T02:04:34;12.65;;;6.57;;
53409;SDS011;66590;50.734;4.246;2023-07-31T02:07:01;12.10;;;7.60;;
53409;SDS011;66590;50.734;4.246;2023-07-31T02:09:28;12.98;;;7.07;;
53409;SDS011;66590;50.734;4.246;2023-07-31T02:11:55;10.75;;;6.07;;
53409;SDS011;66590;50.734;4.246;2023-07-31T02:14:22;11.77;;;6.50;;
53409;SDS011;66590;50.734;4.246;2023-07-31T02:16:49;11.13;;;6.45;;
53409;SDS011;66590;50.734;4.246;2023-07-31T02:19:18;10.50;;;6.20;;
53409;SDS011;66590;50.734;4.246;2023-07-31T02:21:45;10.40;;;6.05;;
53409;SDS011;66590;50.734;4.246;2023-07-31T02:24:12;8.60;;;5.55;;
53409;SDS011;66590;50.734;4.246;2023-07-31T02:26:39;12.65;;;5.93;;
53409;SDS011;66590;50.734;4.246;2023-07-31T02:29:06;11.07;;;5.97;;
53409;SDS011;66590;50.734;4.246;2023-07-31T02:31:33;12.43;;;5.93;;
53409;SDS011;66590;50.734;4.246;2023-07-31T02:34:00;9.95;;;5.38;;
53409;SDS011;66590;50.734;4.246;2023-07-31T02:36:28;7.55;;;5.30;;
53409;SDS011;66590;50.734;4.246;2023-07-31T02:38:55;8.77;;;5.85;;
53409;SDS011;66590;50.734;4.246;2023-07-31T02:41:22;11.15;;;5.93;;
53409;SDS011;66590;50.734;4.246;2023-07-31T02:43:49;8.20;;;5.65;;
53409;SDS011;66590;50.734;4.246;2023-07-31T02:46:17;10.00;;;5.50;;
53409;SDS011;66590;50.734;4.246;2023-07-31T02:48:45;12.30;;;5.55;;
53409;SDS011;66590;50.734;4.246;2023-07-31T02:51:12;9.15;;;5.88;;
53409;SDS011;66590;50.734;4.246;2023-07-31T02:53:40;7.78;;;4.60;;
53409;SDS011;66590;50.734;4.246;2023-07-31T02:56:07;11.27;;;5.82;;
53409;SDS011;66590;50.734;4.246;2023-07-31T02:58:34;7.68;;;5.13;;
53409;SDS011;66590;50.734;4.246;2023-07-31T03:01:01;9.40;;;5.57;;
53409;SDS011;66590;50.734;4.246;2023-07-31T03:03:28;7.85;;;5.22;;
53409;SDS011;66590;50.734;4.246;2023-07-31T03:05:55;9.00;;;5.40;;
53409;SDS011;66590;50.734;4.246;2023-07-31T03:08:22;8.02;;;5.03;;
53409;SDS011;66590;50.734;4.246;2023-07-31T03:10:51;11.32;;;5.38;;
53409;SDS011;66590;50.734;4.246;2023-07-31T03:13:18;11.13;;;5.20;;
53409;SDS011;66590;50.734;4.246;2023-07-31T03:15:45;7.72;;;5.38;;
53409;SDS011;66590;50.734;4.246;2023-07-31T03:18:12;7.28;;;4.97;;
53409;SDS011;66590;50.734;4.246;2023-07-31T03:20:41;9.45;;;4.82;;
53409;SDS011;66590;50.734;4.246;2023-07-31T03:23:08;9.02;;;5.13;;
53409;SDS011;66590;50.734;4.246;2023-07-31T03:25:35;10.68;;;5.10;;
53409;SDS011;66590;50.734;4.246;2023-07-31T03:28:04;7.47;;;5.03;;
53409;SDS011;66590;50.734;4.246;2023-07-31T03:30:31;10.52;;;5.30;;
53409;SDS011;66590;50.734;4.246;2023-07-31T03:32:58;9.38;;;5.13;;
53409;SDS011;66590;50.734;4.246;2023-07-31T03:35:25;10.90;;;5.93;;
53409;SDS011;66590;50.734;4.246;2023-07-31T03:37:52;9.52;;;4.50;;
53409;SDS011;66590;50.734;4.246;2023-07-31T03:40:19;10.77;;;5.50;;
53409;SDS011;66590;50.734;4.246;2023-07-31T03:42:46;8.13;;;5.57;;
53409;SDS011;66590;50.734;4.246;2023-07-31T03:45:15;9.82;;;5.57;;
53409;SDS011;66590;50.734;4.246;2023-07-31T03:47:41;10.90;;;5.68;;
53409;SDS011;66590;50.734;4.246;2023-07-31T03:50:09;9.95;;;5.85;;
53409;SDS011;66590;50.734;4.246;2023-07-31T03:52:36;11.85;;;5.85;;
53409;SDS011;66590;50.734;4.246;2023-07-31T03:55:03;10.48;;;5.25;;
53409;SDS011;66590;50.734;4.246;2023-07-31T03:57:31;11.27;;;5.57;;
53409;SDS011;66590;50.734;4.246;2023-07-31T03:59:58;9.65;;;5.22;;
53409;SDS011;66590;50.734;4.246;2023-07-31T04:02:26;9.43;;;5.03;;
53409;SDS011;66590;50.734;4.246;2023-07-31T04:04:53;7.93;;;4.53;;
53409;SDS011;66590;50.734;4.246;2023-07-31T04:07:20;12.15;;;4.88;;
53409;SDS011;66590;50.734;4.246;2023-07-31T04:09:47;9.55;;;4.78;;
53409;SDS011;66590;50.734;4.246;2023-07-31T04:12:14;10.23;;;5.25;;
53409;SDS011;66590;50.734;4.246;2023-07-31T04:14:41;8.15;;;4.82;;
53409;SDS011;66590;50.734;4.246;2023-07-31T04:17:08;10.40;;;5.63;;
53409;SDS011;66590;50.734;4.246;2023-07-31T04:19:39;7.28;;;4.85;;
53409;SDS011;66590;50.734;4.246;2023-07-31T04:22:06;9.55;;;5.70;;
53409;SDS011;66590;50.734;4.246;2023-07-31T04:24:33;10.75;;;5.20;;
53409;SDS011;66590;50.734;4.246;2023-07-31T04:26:59;10.55;;;5.60;;
53409;SDS011;66590;50.734;4.246;2023-07-31T04:29:26;8.27;;;5.30;;
53409;SDS011;66590;50.734;4.246;2023-07-31T04:31:53;12.65;;;5.50;;
53409;SDS011;66590;50.734;4.246;2023-07-31T04:34:20;11.13;;;5.72;;
53409;SDS011;66590;50.734;4.246;2023-07-31T04:36:49;6.70;;;5.43;;
53409;SDS011;66590;50.734;4.246;2023-07-31T04:39:16;5.47;;;4.47;;
53409;SDS011;66590;50.734;4.246;2023-07-31T04:41:43;9.68;;;5.28;;
53409;SDS011;66590;50.734;4.246;2023-07-31T04:44:09;8.00;;;4.80;;
53409;SDS011;66590;50.734;4.246;2023-07-31T04:46:36;10.02;;;5.28;;
53409;SDS011;66590;50.734;4.246;2023-07-31T04:49:04;10.82;;;6.00;;
53409;SDS011;66590;50.734;4.246;2023-07-31T04:51:31;11.65;;;5.38;;
53409;SDS011;66590;50.734;4.246;2023-07-31T04:53:59;9.75;;;4.68;;
53409;SDS011;66590;50.734;4.246;2023-07-31T04:56:26;10.80;;;5.38;;
53409;SDS011;66590;50.734;4.246;2023-07-31T04:58:53;11.40;;;5.88;;
53409;SDS011;66590;50.734;4.246;2023-07-31T05:01:20;9.75;;;5.00;;
53409;SDS011;66590;50.734;4.246;2023-07-31T05:03:47;8.82;;;5.35;;
53409;SDS011;66590;50.734;4.246;2023-07-31T05:06:14;12.27;;;5.35;;
53409;SDS011;66590;50.734;4.246;2023-07-31T05:08:41;10.32;;;5.35;;
53409;SDS011;66590;50.734;4.246;2023-07-31T05:11:10;12.25;;;5.40;;
53409;SDS011;66590;50.734;4.246;2023-07-31T05:13:38;11.10;;;5.47;;
53409;SDS011;66590;50.734;4.246;2023-07-31T05:16:05;16.02;;;5.65;;
53409;SDS011;66590;50.734;4.246;2023-07-31T05:18:32;10.25;;;5.50;;
53409;SDS011;66590;50.734;4.246;2023-07-31T05:20:59;11.07;;;5.90;;
53409;SDS011;66590;50.734;4.246;2023-07-31T05:23:26;12.80;;;5.18;;
53409;SDS011;66590;50.734;4.246;2023-07-31T05:25:53;9.15;;;5.13;;
53409;SDS011;66590;50.734;4.246;2023-07-31T05:28:22;11.27;;;5.22;;
53409;SDS011;66590;50.734;4.246;2023-07-31T05:30:49;10.55;;;5.45;;
53409;SDS011;66590;50.734;4.246;2023-07-31T05:33:16;10.68;;;5.13;;
53409;SDS011;66590;50.734;4.246;2023-07-31T05:35:42;10.50;;;5.65;;
53409;SDS011;66590;50.734;4.246;2023-07-31T05:38:09;10.63;;;5.80;;
53409;SDS011;66590;50.734;4.246;2023-07-31T05:40:37;11.77;;;5.75;;
53409;SDS011;66590;50.734;4.246;2023-07-31T05:43:04;10.73;;;5.43;;
53409;SDS011;66590;50.734;4.246;2023-07-31T05:45:32;12.20;;;6.20;;
53409;SDS011;66590;50.734;4.246;2023-07-31T05:47:59;8.70;;;5.55;;
53409;SDS011;66590;50.734;4.246;2023-07-31T05:50:26;12.27;;;6.25;;
53409;SDS011;66590;50.734;4.246;2023-07-31T05:52:53;14.10;;;6.25;;
53409;SDS011;66590;50.734;4.246;2023-07-31T05:55:20;9.93;;;5.50;;
53409;SDS011;66590;50.734;4.246;2023-07-31T05:57:47;12.43;;;5.75;;
53409;SDS011;66590;50.734;4.246;2023-07-31T06:00:14;10.70;;;5.63;;
53409;SDS011;66590;50.734;4.246;2023-07-31T06:02:43;8.75;;;5.30;;
53409;SDS011;66590;50.734;4.246;2023-07-31T06:05:10;13.27;;;6.00;;
53409;SDS011;66590;50.734;4.246;2023-07-31T06:07:37;9.80;;;5.47;;
53409;SDS011;66590;50.734;4.246;2023-07-31T06:10:04;12.13;;;5.47;;
53409;SDS011;66590;50.734;4.246;2023-07-31T06:12:32;10.75;;;5.07;;
53409;SDS011;66590;50.734;4.246;2023-07-31T06:14:59;9.95;;;5.70;;
53409;SDS011;66590;50.734;4.246;2023-07-31T06:17:26;11.52;;;5.55;;
53409;SDS011;66590;50.734;4.246;2023-07-31T06:19:55;9.75;;;5.07;;
53409;SDS011;66590;50.734;4.246;2023-07-31T06:22:23;13.93;;;6.15;;
53409;SDS011;66590;50.734;4.246;2023-07-31T06:24:50;11.10;;;6.00;;
53409;SDS011;66590;50.734;4.246;2023-07-31T06:27:17;12.23;;;5.18;;
53409;SDS011;66590;50.734;4.246;2023-07-31T06:29:44;11.35;;;4.88;;
53409;SDS011;66590;50.734;4.246;2023-07-31T06:32:10;11.50;;;5.57;;
53409;SDS011;66590;50.734;4.246;2023-07-31T06:34:37;12.45;;;5.53;;
53409;SDS011;66590;50.734;4.246;2023-07-31T06:37:06;8.85;;;4.70;;
53409;SDS011;66590;50.734;4.246;2023-07-31T06:39:33;12.35;;;4.75;;
53409;SDS011;66590;50.734;4.246;2023-07-31T06:42:00;7.22;;;3.95;;
53409;SDS011;66590;50.734;4.246;2023-07-31T06:44:27;9.70;;;4.50;;
53409;SDS011;66590;50.734;4.246;2023-07-31T06:46:54;10.50;;;4.97;;
53409;SDS011;66590;50.734;4.246;2023-07-31T06:49:21;10.95;;;5.15;;
53409;SDS011;66590;50.734;4.246;2023-07-31T06:51:48;10.40;;;4.90;;
53409;SDS011;66590;50.734;4.246;2023-07-31T06:54:16;6.90;;;4.32;;
53409;SDS011;66590;50.734;4.246;2023-07-31T06:56:43;7.57;;;4.15;;
53409;SDS011;66590;50.734;4.246;2023-07-31T06:59:10;8.98;;;4.50;;
53409;SDS011;66590;50.734;4.246;2023-07-31T07:01:38;7.10;;;4.05;;
53409;SDS011;66590;50.734;4.246;2023-07-31T07:04:05;9.20;;;4.50;;
53409;SDS011;66590;50.734;4.246;2023-07-31T07:06:32;8.65;;;4.50;;
53409;SDS011;66590;50.734;4.246;2023-07-31T07:08:59;9.23;;;4.65;;
53409;SDS011;66590;50.734;4.246;2023-07-31T07:11:27;8.65;;;4.57;;
53409;SDS011;66590;50.734;4.246;2023-07-31T07:13:54;8.10;;;4.65;;
53409;SDS011;66590;50.734;4.246;2023-07-31T07:16:21;9.13;;;4.80;;
53409;SDS011;66590;50.734;4.246;2023-07-31T07:18:48;8.15;;;4.45;;
53409;SDS011;66590;50.734;4.246;2023-07-31T07:21:29;11.45;;;4.47;;
53409;SDS011;66590;50.734;4.246;2023-07-31T07:23:56;7.60;;;4.25;;
53409;SDS011;66590;50.734;4.246;2023-07-31T07:26:23;10.38;;;4.85;;
53409;SDS011;66590;50.734;4.246;2023-07-31T07:28:51;11.38;;;4.55;;
53409;SDS011;66590;50.734;4.246;2023-07-31T07:31:18;9.27;;;3.92;;
53409;SDS011;66590;50.734;4.246;2023-07-31T07:33:45;6.93;;;3.92;;
53409;SDS011;66590;50.734;4.246;2023-07-31T07:36:12;7.47;;;4.28;;
53409;SDS011;66590;50.734;4.246;2023-07-31T07:38:39;10.10;;;4.13;;
53409;SDS011;66590;50.734;4.246;2023-07-31T07:41:06;11.15;;;4.40;;
53409;SDS011;66590;50.734;4.246;2023-07-31T07:43:33;21.23;;;6.13;;
53409;SDS011;66590;50.734;4.246;2023-07-31T07:46:01;10.38;;;4.28;;
53409;SDS011;66590;50.734;4.246;2023-07-31T07:48:28;7.80;;;4.22;;
53409;SDS011;66590;50.734;4.246;2023-07-31T07:50:55;6.35;;;3.97;;
53409;SDS011;66590;50.734;4.246;2023-07-31T07:53:22;7.30;;;4.47;;
53409;SDS011;66590;50.734;4.246;2023-07-31T07:55:49;8.98;;;3.95;;
53409;SDS011;66590;50.734;4.246;2023-07-31T07:58:16;6.43;;;3.25;;
53409;SDS011;66590;50.734;4.246;2023-07-31T08:00:48;6.72;;;4.10;;
53409;SDS011;66590;50.734;4.246;2023-07-31T08:03:16;8.93;;;4.40;;
53409;SDS011;66590;50.734;4.246;2023-07-31T08:05:44;8.07;;;4.25;;
53409;SDS011;66590;50.734;4.246;2023-07-31T08:08:13;9.20;;;3.92;;
53409;SDS011;66590;50.734;4.246;2023-07-31T08:10:41;7.45;;;3.42;;
53409;SDS011;66590;50.734;4.246;2023-07-31T08:13:08;10.98;;;4.05;;
53409;SDS011;66590;50.734;4.246;2023-07-31T08:15:36;10.80;;;4.03;;
53409;SDS011;66590;50.734;4.246;2023-07-31T08:18:03;6.68;;;4.05;;
53409;SDS011;66590;50.734;4.246;2023-07-31T08:20:31;7.43;;;3.80;;
53409;SDS011;66590;50.734;4.246;2023-07-31T08:22:58;8.55;;;4.18;;
53409;SDS011;66590;50.734;4.246;2023-07-31T08:25:25;11.02;;;4.90;;
53409;SDS011;66590;50.734;4.246;2023-07-31T08:27:53;9.55;;;4.32;;
53409;SDS011;66590;50.734;4.246;2023-07-31T08:30:20;9.20;;;4.70;;
53409;SDS011;66590;50.734;4.246;2023-07-31T08:32:48;8.75;;;3.92;;
53409;SDS011;66590;50.734;4.246;2023-07-31T08:35:15;9.38;;;4.43;;
53409;SDS011;66590;50.734;4.246;2023-07-31T08:37:44;9.32;;;4.00;;
53409;SDS011;66590;50.734;4.246;2023-07-31T08:40:11;8.90;;;4.15;;
53409;SDS011;66590;50.734;4.246;2023-07-31T08:42:42;7.80;;;4.38;;
53409;SDS011;66590;50.734;4.246;2023-07-31T08:45:12;8.05;;;3.90;;
53409;SDS011;66590;50.734;4.246;2023-07-31T08:47:41;7.10;;;4.00;;
53409;SDS011;66590;50.734;4.246;2023-07-31T08:50:14;6.85;;;4.50;;
53409;SDS011;66590;50.734;4.246;2023-07-31T08:52:45;8.82;;;4.75;;
53409;SDS011;66590;50.734;4.246;2023-07-31T08:55:13;8.00;;;4.50;;
53409;SDS011;66590;50.734;4.246;2023-07-31T08:57:40;10.27;;;5.03;;
53409;SDS011;66590;50.734;4.246;2023-07-31T09:00:09;8.45;;;4.15;;
53409;SDS011;66590;50.734;4.246;2023-07-31T09:02:37;8.32;;;4.43;;
53409;SDS011;66590;50.734;4.246;2023-07-31T09:05:15;7.25;;;4.80;;
53409;SDS011;66590;50.734;4.246;2023-07-31T09:07:45;10.23;;;4.82;;
53409;SDS011;66590;50.734;4.246;2023-07-31T09:10:14;8.93;;;4.72;;
53409;SDS011;66590;50.734;4.246;2023-07-31T09:12:41;12.15;;;4.93;;
53409;SDS011;66590;50.734;4.246;2023-07-31T09:15:09;9.07;;;5.10;;
53409;SDS011;66590;50.734;4.246;2023-07-31T09:17:58;8.63;;;5.07;;
53409;SDS011;66590;50.734;4.246;2023-07-31T09:20:26;9.10;;;5.28;;
53409;SDS011;66590;50.734;4.246;2023-07-31T09:22:54;7.57;;;4.93;;
53409;SDS011;66590;50.734;4.246;2023-07-31T09:25:22;8.55;;;4.57;;
53409;SDS011;66590;50.734;4.246;2023-07-31T09:27:51;9.05;;;5.18;;
53409;SDS011;66590;50.734;4.246;2023-07-31T09:30:24;7.28;;;4.80;;
53409;SDS011;66590;50.734;4.246;2023-07-31T09:33:00;8.85;;;4.80;;
53409;SDS011;66590;50.734;4.246;2023-07-31T09:35:28;11.45;;;5.38;;
53409;SDS011;66590;50.734;4.246;2023-07-31T09:37:59;9.82;;;5.68;;
53409;SDS011;66590;50.734;4.246;2023-07-31T09:40:28;10.77;;;5.80;;
53409;SDS011;66590;50.734;4.246;2023-07-31T09:42:56;11.73;;;5.57;;
53409;SDS011;66590;50.734;4.246;2023-07-31T09:45:24;11.30;;;6.35;;
53409;SDS011;66590;50.734;4.246;2023-07-31T09:48:06;11.00;;;5.95;;
53409;SDS011;66590;50.734;4.246;2023-07-31T09:50:36;10.23;;;5.32;;
53409;SDS011;66590;50.734;4.246;2023-07-31T09:53:05;8.60;;;5.57;;
53409;SDS011;66590;50.734;4.246;2023-07-31T09:55:33;10.43;;;5.43;;
53409;SDS011;66590;50.734;4.246;2023-07-31T09:58:02;8.50;;;5.22;;
53409;SDS011;66590;50.734;4.246;2023-07-31T10:00:30;12.85;;;6.05;;
53409;SDS011;66590;50.734;4.246;2023-07-31T10:02:58;10.48;;;5.68;;
53409;SDS011;66590;50.734;4.246;2023-07-31T10:05:27;9.32;;;5.22;;
53409;SDS011;66590;50.734;4.246;2023-07-31T10:07:57;11.57;;;5.70;;
53409;SDS011;66590;50.734;4.246;2023-07-31T10:10:26;10.77;;;6.13;;
53409;SDS011;66590;50.734;4.246;2023-07-31T10:12:54;17.05;;;7.15;;
53409;SDS011;66590;50.734;4.246;2023-07-31T10:15:22;13.98;;;6.20;;
53409;SDS011;66590;50.734;4.246;2023-07-31T10:17:50;13.25;;;6.13;;
53409;SDS011;66590;50.734;4.246;2023-07-31T10:20:18;9.82;;;5.30;;
53409;SDS011;66590;50.734;4.246;2023-07-31T10:22:45;10.52;;;5.50;;
53409;SDS011;66590;50.734;4.246;2023-07-31T10:25:12;10.25;;;6.00;;
53409;SDS011;66590;50.734;4.246;2023-07-31T10:27:42;11.73;;;6.43;;
53409;SDS011;66590;50.734;4.246;2023-07-31T10:30:11;14.88;;;6.50;;
53409;SDS011;66590;50.734;4.246;2023-07-31T10:32:45;12.95;;;6.60;;
53409;SDS011;66590;50.734;4.246;2023-07-31T10:35:13;12.30;;;6.47;;
53409;SDS011;66590;50.734;4.246;2023-07-31T10:37:42;12.35;;;6.22;;
53409;SDS011;66590;50.734;4.246;2023-07-31T10:40:10;11.70;;;6.20;;
53409;SDS011;66590;50.734;4.246;2023-07-31T10:42:46;12.68;;;6.30;;
53409;SDS011;66590;50.734;4.246;2023-07-31T10:45:23;11.37;;;5.80;;
53409;SDS011;66590;50.734;4.246;2023-07-31T10:47:51;10.43;;;6.15;;
53409;SDS011;66590;50.734;4.246;2023-07-31T10:50:25;12.53;;;6.40;;
53409;SDS011;66590;50.734;4.246;2023-07-31T10:52:53;9.25;;;6.22;;
53409;SDS011;66590;50.734;4.246;2023-07-31T10:55:26;11.93;;;6.15;;
53409;SDS011;66590;50.734;4.246;2023-07-31T10:58:05;11.70;;;5.60;;
53409;SDS011;66590;50.734;4.246;2023-07-31T11:00:32;14.25;;;6.30;;
53409;SDS011;66590;50.734;4.246;2023-07-31T11:03:00;8.65;;;5.82;;
53409;SDS011;66590;50.734;4.246;2023-07-31T11:08:27;10.40;;;5.57;;
53409;SDS011;66590;50.734;4.246;2023-07-31T11:11:04;12.32;;;6.38;;
53409;SDS011;66590;50.734;4.246;2023-07-31T11:13:39;13.10;;;5.75;;
53409;SDS011;66590;50.734;4.246;2023-07-31T11:16:08;15.15;;;6.60;;
53409;SDS011;66590;50.734;4.246;2023-07-31T11:18:35;11.55;;;6.47;;
53409;SDS011;66590;50.734;4.246;2023-07-31T11:21:04;12.07;;;5.80;;
53409;SDS011;66590;50.734;4.246;2023-07-31T11:23:31;14.90;;;6.13;;
53409;SDS011;66590;50.734;4.246;2023-07-31T11:25:59;10.75;;;6.28;;
53409;SDS011;66590;50.734;4.246;2023-07-31T11:28:30;11.38;;;6.00;;
53409;SDS011;66590;50.734;4.246;2023-07-31T11:31:00;13.52;;;6.25;;
53409;SDS011;66590;50.734;4.246;2023-07-31T11:33:27;15.05;;;5.57;;
53409;SDS011;66590;50.734;4.246;2023-07-31T11:35:54;13.48;;;5.63;;
53409;SDS011;66590;50.734;4.246;2023-07-31T11:38:21;11.57;;;5.93;;
53409;SDS011;66590;50.734;4.246;2023-07-31T11:40:49;10.82;;;5.78;;
53409;SDS011;66590;50.734;4.246;2023-07-31T11:43:17;10.35;;;5.40;;
53409;SDS011;66590;50.734;4.246;2023-07-31T11:45:46;9.32;;;5.53;;
53409;SDS011;66590;50.734;4.246;2023-07-31T11:48:21;11.13;;;6.10;;
53409;SDS011;66590;50.734;4.246;2023-07-31T11:50:49;11.65;;;5.53;;
53409;SDS011;66590;50.734;4.246;2023-07-31T11:53:19;12.00;;;6.30;;
53409;SDS011;66590;50.734;4.246;2023-07-31T11:55:50;9.52;;;5.35;;
53409;SDS011;66590;50.734;4.246;2023-07-31T11:58:18;11.32;;;5.43;;
53409;SDS011;66590;50.734;4.246;2023-07-31T12:00:46;11.30;;;5.38;;
53409;SDS011;66590;50.734;4.246;2023-07-31T12:03:13;11.65;;;5.78;;
53409;SDS011;66590;50.734;4.246;2023-07-31T12:05:42;13.93;;;6.00;;
53409;SDS011;66590;50.734;4.246;2023-07-31T12:08:09;13.23;;;6.22;;
53409;SDS011;66590;50.734;4.246;2023-07-31T12:10:37;12.30;;;6.47;;
53409;SDS011;66590;50.734;4.246;2023-07-31T12:13:06;10.75;;;6.03;;
53409;SDS011;66590;50.734;4.246;2023-07-31T12:15:37;10.45;;;5.60;;
53409;SDS011;66590;50.734;4.246;2023-07-31T12:18:07;10.63;;;5.65;;
53409;SDS011;66590;50.734;4.246;2023-07-31T12:20:39;10.48;;;5.07;;
53409;SDS011;66590;50.734;4.246;2023-07-31T12:25:40;11.02;;;6.05;;
53409;SDS011;66590;50.734;4.246;2023-07-31T12:28:07;11.55;;;6.22;;
53409;SDS011;66590;50.734;4.246;2023-07-31T12:30:35;12.20;;;6.07;;
53409;SDS011;66590;50.734;4.246;2023-07-31T12:33:05;9.57;;;5.93;;
53409;SDS011;66590;50.734;4.246;2023-07-31T12:35:36;12.43;;;6.20;;
53409;SDS011;66590;50.734;4.246;2023-07-31T12:38:06;8.05;;;5.57;;
53409;SDS011;66590;50.734;4.246;2023-07-31T12:40:35;12.90;;;6.32;;
53409;SDS011;66590;50.734;4.246;2023-07-31T12:43:04;11.13;;;6.07;;
53409;SDS011;66590;50.734;4.246;2023-07-31T12:45:31;12.18;;;5.82;;
53409;SDS011;66590;50.734;4.246;2023-07-31T12:47:58;11.85;;;6.38;;
53409;SDS011;66590;50.734;4.246;2023-07-31T12:50:25;11.88;;;6.20;;
53409;SDS011;66590;50.734;4.246;2023-07-31T12:52:53;10.50;;;6.00;;
53409;SDS011;66590;50.734;4.246;2023-07-31T12:55:21;11.93;;;6.03;;
53409;SDS011;66590;50.734;4.246;2023-07-31T12:57:49;9.50;;;6.03;;
53409;SDS011;66590;50.734;4.246;2023-07-31T13:00:16;12.13;;;5.85;;
53409;SDS011;66590;50.734;4.246;2023-07-31T13:05:28;10.05;;;5.25;;
53409;SDS011;66590;50.734;4.246;2023-07-31T13:07:55;8.20;;;5.78;;
53409;SDS011;66590;50.734;4.246;2023-07-31T13:10:24;7.45;;;4.57;;
53409;SDS011;66590;50.734;4.246;2023-07-31T13:12:51;7.75;;;4.30;;
53409;SDS011;66590;50.734;4.246;2023-07-31T13:15:18;10.73;;;4.75;;
53409;SDS011;66590;50.734;4.246;2023-07-31T13:17:45;9.18;;;3.88;;
53409;SDS011;66590;50.734;4.246;2023-07-31T13:20:12;10.35;;;5.50;;
53409;SDS011;66590;50.734;4.246;2023-07-31T13:22:39;8.57;;;5.50;;
53409;SDS011;66590;50.734;4.246;2023-07-31T13:25:08;9.85;;;5.38;;
53409;SDS011;66590;50.734;4.246;2023-07-31T13:27:37;8.52;;;5.13;;
53409;SDS011;66590;50.734;4.246;2023-07-31T13:30:04;16.92;;;5.60;;
53409;SDS011;66590;50.734;4.246;2023-07-31T13:32:32;22.92;;;6.50;;
53409;SDS011;66590;50.734;4.246;2023-07-31T13:34:59;42.53;;;8.82;;
53409;SDS011;66590;50.734;4.246;2023-07-31T13:37:26;12.30;;;5.53;;
53409;SDS011;66590;50.734;4.246;2023-07-31T13:39:53;9.20;;;5.38;;
53409;SDS011;66590;50.734;4.246;2023-07-31T13:42:20;8.10;;;5.07;;
53409;SDS011;66590;50.734;4.246;2023-07-31T13:44:49;9.98;;;5.70;;
53409;SDS011;66590;50.734;4.246;2023-07-31T13:47:16;9.70;;;5.30;;
53409;SDS011;66590;50.734;4.246;2023-07-31T13:49:42;10.13;;;5.75;;
53409;SDS011;66590;50.734;4.246;2023-07-31T13:52:09;9.07;;;5.65;;
53409;SDS011;66590;50.734;4.246;2023-07-31T13:54:36;10.27;;;5.78;;
53409;SDS011;66590;50.734;4.246;2023-07-31T13:57:04;8.35;;;5.22;;
53409;SDS011;66590;50.734;4.246;2023-07-31T13:59:31;9.32;;;5.07;;
53409;SDS011;66590;50.734;4.246;2023-07-31T14:02:00;8.88;;;5.20;;
53409;SDS011;66590;50.734;4.246;2023-07-31T14:04:27;8.85;;;5.30;;
53409;SDS011;66590;50.734;4.246;2023-07-31T14:06:55;9.82;;;5.43;;
53409;SDS011;66590;50.734;4.246;2023-07-31T14:09:22;9.40;;;5.50;;
53409;SDS011;66590;50.734;4.246;2023-07-31T14:11:49;7.72;;;4.45;;
53409;SDS011;66590;50.734;4.246;2023-07-31T14:14:16;8.88;;;4.78;;
53409;SDS011;66590;50.734;4.246;2023-07-31T14:16:43;6.80;;;5.15;;
53409;SDS011;66590;50.734;4.246;2023-07-31T14:19:12;13.35;;;5.55;;
53409;SDS011;66590;50.734;4.246;2023-07-31T14:21:39;9.07;;;5.35;;
53409;SDS011;66590;50.734;4.246;2023-07-31T14:24:06;8.52;;;5.10;;
53409;SDS011;66590;50.734;4.246;2023-07-31T14:26:34;9.25;;;5.03;;
53409;SDS011;66590;50.734;4.246;2023-07-31T14:29:01;7.95;;;5.00;;
53409;SDS011;66590;50.734;4.246;2023-07-31T14:31:27;9.45;;;4.55;;
53409;SDS011;66590;50.734;4.246;2023-07-31T14:33:55;8.00;;;4.30;;
53409;SDS011;66590;50.734;4.246;2023-07-31T14:36:25;7.78;;;4.50;;
53409;SDS011;66590;50.734;4.246;2023-07-31T14:38:53;5.30;;;3.85;;
53409;SDS011;66590;50.734;4.246;2023-07-31T14:41:20;7.10;;;4.38;;
53409;SDS011;66590;50.734;4.246;2023-07-31T14:43:47;8.02;;;4.63;;
53409;SDS011;66590;50.734;4.246;2023-07-31T14:46:14;8.27;;;3.60;;
53409;SDS011;66590;50.734;4.246;2023-07-31T14:48:41;5.47;;;3.67;;
53409;SDS011;66590;50.734;4.246;2023-07-31T14:51:08;6.22;;;3.95;;
53409;SDS011;66590;50.734;4.246;2023-07-31T14:53:36;5.30;;;3.97;;
53409;SDS011;66590;50.734;4.246;2023-07-31T14:56:03;5.85;;;3.83;;